Terminal Aerodrome Forecast
Issued by NWS Miami, FL

Home | Current Version | Previous Version | Text Only | Print | Product List | Glossary On
Versions: 1 2 3 4 5 6 7 8 9 10 11 12 13 14 15 16 17 18 19 20 21 22 23 24 25
000
FTUS42 KMFL 210543
TAFAPF
TAF
KAPF 210543Z 2106/2206 07010KT P6SM SCT250
     FM211500 08015G21KT P6SM SCT025 SCT035
     FM220000 06011KT P6SM FEW035 SCT250
     FM220300 07009KT P6SM SCT050 SCT250=

USA.gov is the U.S. government's official web portal to all federal, state and local government web resources and services.